sensor_id;sensor_type;location;lat;lon;timestamp;P1;durP1;ratioP1;P2;durP2;ratioP2
928;SDS011;451;47.988;7.842;2023-02-28T00:05:18;5.17;;;4.70;;
928;SDS011;451;47.988;7.842;2023-02-28T00:14:23;6.40;;;5.90;;
928;SDS011;451;47.988;7.842;2023-02-28T00:23:27;4.97;;;4.57;;
928;SDS011;451;47.988;7.842;2023-02-28T00:32:31;5.47;;;4.90;;
928;SDS011;451;47.988;7.842;2023-02-28T00:41:37;7.83;;;4.07;;
928;SDS011;451;47.988;7.842;2023-02-28T00:50:43;5.93;;;5.53;;
928;SDS011;451;47.988;7.842;2023-02-28T00:59:46;5.90;;;5.30;;
928;SDS011;451;47.988;7.842;2023-02-28T01:08:51;5.23;;;4.73;;
928;SDS011;451;47.988;7.842;2023-02-28T01:17:54;9.10;;;5.67;;
928;SDS011;451;47.988;7.842;2023-02-28T01:26:58;4.33;;;3.93;;
928;SDS011;451;47.988;7.842;2023-02-28T01:36:02;5.53;;;4.90;;
928;SDS011;451;47.988;7.842;2023-02-28T01:45:14;6.57;;;5.70;;
928;SDS011;451;47.988;7.842;2023-02-28T01:54:24;6.13;;;5.53;;
928;SDS011;451;47.988;7.842;2023-02-28T02:03:31;7.77;;;4.57;;
928;SDS011;451;47.988;7.842;2023-02-28T02:12:38;5.93;;;5.43;;
928;SDS011;451;47.988;7.842;2023-02-28T02:31:38;5.50;;;5.00;;
928;SDS011;451;47.988;7.842;2023-02-28T02:41:08;7.53;;;5.23;;
928;SDS011;451;47.988;7.842;2023-02-28T02:50:17;5.23;;;4.83;;
928;SDS011;451;47.988;7.842;2023-02-28T02:59:26;5.40;;;4.90;;
928;SDS011;451;47.988;7.842;2023-02-28T03:08:33;6.10;;;5.53;;
928;SDS011;451;47.988;7.842;2023-02-28T03:27:05;6.40;;;5.80;;
928;SDS011;451;47.988;7.842;2023-02-28T03:36:14;5.57;;;5.07;;
928;SDS011;451;47.988;7.842;2023-02-28T03:45:22;5.75;;;5.25;;
928;SDS011;451;47.988;7.842;2023-02-28T03:54:30;6.30;;;5.80;;
928;SDS011;451;47.988;7.842;2023-02-28T04:03:37;5.93;;;5.43;;
928;SDS011;451;47.988;7.842;2023-02-28T04:12:42;4.90;;;4.40;;
928;SDS011;451;47.988;7.842;2023-02-28T04:21:46;6.13;;;5.57;;
928;SDS011;451;47.988;7.842;2023-02-28T04:30:56;6.70;;;5.10;;
928;SDS011;451;47.988;7.842;2023-02-28T04:40:00;5.63;;;5.07;;
928;SDS011;451;47.988;7.842;2023-02-28T04:49:05;6.80;;;6.20;;
928;SDS011;451;47.988;7.842;2023-02-28T04:58:08;7.53;;;5.60;;
928;SDS011;451;47.988;7.842;2023-02-28T05:07:12;3.60;;;3.30;;
928;SDS011;451;47.988;7.842;2023-02-28T05:16:15;4.73;;;4.33;;
928;SDS011;451;47.988;7.842;2023-02-28T05:25:20;5.93;;;5.10;;
928;SDS011;451;47.988;7.842;2023-02-28T05:34:24;7.97;;;7.18;;
928;SDS011;451;47.988;7.842;2023-02-28T05:43:28;7.57;;;5.70;;
928;SDS011;451;47.988;7.842;2023-02-28T05:52:31;7.13;;;6.50;;
928;SDS011;451;47.988;7.842;2023-02-28T06:01:37;10.30;;;7.53;;
928;SDS011;451;47.988;7.842;2023-02-28T06:10:41;6.43;;;5.87;;
928;SDS011;451;47.988;7.842;2023-02-28T06:19:46;9.10;;;7.10;;
928;SDS011;451;47.988;7.842;2023-02-28T06:28:49;11.50;;;7.30;;
928;SDS011;451;47.988;7.842;2023-02-28T06:37:53;8.30;;;7.50;;
928;SDS011;451;47.988;7.842;2023-02-28T06:46:56;9.10;;;7.87;;
928;SDS011;451;47.988;7.842;2023-02-28T06:56:02;8.23;;;7.00;;
928;SDS011;451;47.988;7.842;2023-02-28T07:05:07;9.13;;;7.47;;
928;SDS011;451;47.988;7.842;2023-02-28T07:14:11;8.70;;;7.07;;
928;SDS011;451;47.988;7.842;2023-02-28T07:23:14;8.43;;;7.63;;
928;SDS011;451;47.988;7.842;2023-02-28T07:32:19;10.20;;;7.67;;
928;SDS011;451;47.988;7.842;2023-02-28T07:41:22;10.37;;;8.10;;
928;SDS011;451;47.988;7.842;2023-02-28T07:50:30;10.60;;;8.40;;
928;SDS011;451;47.988;7.842;2023-02-28T07:59:33;8.40;;;6.50;;
928;SDS011;451;47.988;7.842;2023-02-28T08:08:37;8.70;;;6.47;;
928;SDS011;451;47.988;7.842;2023-02-28T08:17:40;7.73;;;6.97;;
928;SDS011;451;47.988;7.842;2023-02-28T08:26:44;8.83;;;7.90;;
928;SDS011;451;47.988;7.842;2023-02-28T08:35:48;9.70;;;8.10;;
928;SDS011;451;47.988;7.842;2023-02-28T08:44:52;8.80;;;7.90;;
928;SDS011;451;47.988;7.842;2023-02-28T08:53:57;8.60;;;6.90;;
928;SDS011;451;47.988;7.842;2023-02-28T09:03:03;10.90;;;8.53;;
928;SDS011;451;47.988;7.842;2023-02-28T09:12:06;10.07;;;7.67;;
928;SDS011;451;47.988;7.842;2023-02-28T09:21:14;8.83;;;7.73;;
928;SDS011;451;47.988;7.842;2023-02-28T09:30:18;8.40;;;7.60;;
928;SDS011;451;47.988;7.842;2023-02-28T09:39:22;11.13;;;7.87;;
928;SDS011;451;47.988;7.842;2023-02-28T09:48:29;8.30;;;6.67;;
928;SDS011;451;47.988;7.842;2023-02-28T09:57:39;8.80;;;7.90;;
928;SDS011;451;47.988;7.842;2023-02-28T10:06:45;11.03;;;9.23;;
928;SDS011;451;47.988;7.842;2023-02-28T10:15:53;12.20;;;9.30;;
928;SDS011;451;47.988;7.842;2023-02-28T10:25:05;11.40;;;9.73;;
928;SDS011;451;47.988;7.842;2023-02-28T10:34:20;11.10;;;9.47;;
928;SDS011;451;47.988;7.842;2023-02-28T10:43:23;9.73;;;8.73;;
928;SDS011;451;47.988;7.842;2023-02-28T10:52:36;10.17;;;9.17;;
928;SDS011;451;47.988;7.842;2023-02-28T11:01:42;8.83;;;7.00;;
928;SDS011;451;47.988;7.842;2023-02-28T11:10:48;9.30;;;8.40;;
928;SDS011;451;47.988;7.842;2023-02-28T11:19:58;11.23;;;8.63;;
928;SDS011;451;47.988;7.842;2023-02-28T11:29:11;12.07;;;8.77;;
928;SDS011;451;47.988;7.842;2023-02-28T11:38:18;11.07;;;8.57;;
928;SDS011;451;47.988;7.842;2023-02-28T11:47:27;12.30;;;9.80;;
928;SDS011;451;47.988;7.842;2023-02-28T11:56:36;9.60;;;8.60;;
928;SDS011;451;47.988;7.842;2023-02-28T12:05:44;14.60;;;10.07;;
928;SDS011;451;47.988;7.842;2023-02-28T12:24:42;10.33;;;9.27;;
928;SDS011;451;47.988;7.842;2023-02-28T12:34:20;10.90;;;9.80;;
928;SDS011;451;47.988;7.842;2023-02-28T12:43:29;11.60;;;9.93;;
928;SDS011;451;47.988;7.842;2023-02-28T12:52:37;11.97;;;9.90;;
928;SDS011;451;47.988;7.842;2023-02-28T13:01:51;12.63;;;10.43;;
928;SDS011;451;47.988;7.842;2023-02-28T13:11:02;10.87;;;8.50;;
928;SDS011;451;47.988;7.842;2023-02-28T13:20:16;11.93;;;10.27;;
928;SDS011;451;47.988;7.842;2023-02-28T13:29:21;13.00;;;10.60;;
928;SDS011;451;47.988;7.842;2023-02-28T13:38:33;14.20;;;11.00;;
928;SDS011;451;47.988;7.842;2023-02-28T13:47:51;13.47;;;10.70;;
928;SDS011;451;47.988;7.842;2023-02-28T13:57:06;10.13;;;9.10;;
928;SDS011;451;47.988;7.842;2023-02-28T14:06:24;15.83;;;11.20;;
928;SDS011;451;47.988;7.842;2023-02-28T14:15:39;11.80;;;10.30;;
928;SDS011;451;47.988;7.842;2023-02-28T14:24:59;11.10;;;9.87;;
928;SDS011;451;47.988;7.842;2023-02-28T14:34:29;11.90;;;10.33;;
928;SDS011;451;47.988;7.842;2023-02-28T14:43:47;13.63;;;11.20;;
928;SDS011;451;47.988;7.842;2023-02-28T14:52:53;11.50;;;10.30;;
928;SDS011;451;47.988;7.842;2023-02-28T15:02:16;12.57;;;10.03;;
928;SDS011;451;47.988;7.842;2023-02-28T15:11:25;12.60;;;11.30;;
928;SDS011;451;47.988;7.842;2023-02-28T15:20:28;13.27;;;11.07;;
928;SDS011;451;47.988;7.842;2023-02-28T15:29:34;15.30;;;11.60;;
928;SDS011;451;47.988;7.842;2023-02-28T15:38:45;15.10;;;11.27;;
928;SDS011;451;47.988;7.842;2023-02-28T15:47:55;14.90;;;11.43;;
928;SDS011;451;47.988;7.842;2023-02-28T15:57:00;16.23;;;12.77;;
928;SDS011;451;47.988;7.842;2023-02-28T16:06:09;15.80;;;12.20;;
928;SDS011;451;47.988;7.842;2023-02-28T16:15:37;18.23;;;12.00;;
928;SDS011;451;47.988;7.842;2023-02-28T16:24:45;13.77;;;11.53;;
928;SDS011;451;47.988;7.842;2023-02-28T16:33:48;13.93;;;11.33;;
928;SDS011;451;47.988;7.842;2023-02-28T16:42:52;14.13;;;12.10;;
928;SDS011;451;47.988;7.842;2023-02-28T16:51:58;13.67;;;11.43;;
928;SDS011;451;47.988;7.842;2023-02-28T17:01:02;15.23;;;11.93;;
928;SDS011;451;47.988;7.842;2023-02-28T17:10:09;18.23;;;11.50;;
928;SDS011;451;47.988;7.842;2023-02-28T17:19:17;20.97;;;14.00;;
928;SDS011;451;47.988;7.842;2023-02-28T17:28:21;16.53;;;12.83;;
928;SDS011;451;47.988;7.842;2023-02-28T17:37:25;19.30;;;14.50;;
928;SDS011;451;47.988;7.842;2023-02-28T17:46:28;17.93;;;12.70;;
928;SDS011;451;47.988;7.842;2023-02-28T17:55:33;19.97;;;12.77;;
928;SDS011;451;47.988;7.842;2023-02-28T18:04:36;17.77;;;13.23;;
928;SDS011;451;47.988;7.842;2023-02-28T18:13:40;21.83;;;15.93;;
928;SDS011;451;47.988;7.842;2023-02-28T18:22:44;17.20;;;14.73;;
928;SDS011;451;47.988;7.842;2023-02-28T18:31:49;18.60;;;14.20;;
928;SDS011;451;47.988;7.842;2023-02-28T18:40:55;25.77;;;18.43;;
928;SDS011;451;47.988;7.842;2023-02-28T18:50:02;24.93;;;18.13;;
928;SDS011;451;47.988;7.842;2023-02-28T18:59:06;19.87;;;15.97;;
928;SDS011;451;47.988;7.842;2023-02-28T19:08:11;21.90;;;17.00;;
928;SDS011;451;47.988;7.842;2023-02-28T19:17:14;28.13;;;19.07;;
928;SDS011;451;47.988;7.842;2023-02-28T19:26:20;22.57;;;17.07;;
928;SDS011;451;47.988;7.842;2023-02-28T19:35:23;25.97;;;16.83;;
928;SDS011;451;47.988;7.842;2023-02-28T19:44:28;25.10;;;18.07;;
928;SDS011;451;47.988;7.842;2023-02-28T19:53:32;27.60;;;18.00;;
928;SDS011;451;47.988;7.842;2023-02-28T20:02:37;27.07;;;17.83;;
928;SDS011;451;47.988;7.842;2023-02-28T20:11:40;24.57;;;18.17;;
928;SDS011;451;47.988;7.842;2023-02-28T20:20:44;21.40;;;17.70;;
928;SDS011;451;47.988;7.842;2023-02-28T20:29:47;24.83;;;18.80;;
928;SDS011;451;47.988;7.842;2023-02-28T20:38:51;23.57;;;16.60;;
928;SDS011;451;47.988;7.842;2023-02-28T20:47:55;21.10;;;16.33;;
928;SDS011;451;47.988;7.842;2023-02-28T20:56:59;23.03;;;16.20;;
928;SDS011;451;47.988;7.842;2023-02-28T21:06:02;32.00;;;19.83;;
928;SDS011;451;47.988;7.842;2023-02-28T21:15:07;23.67;;;19.42;;
928;SDS011;451;47.988;7.842;2023-02-28T21:24:11;23.50;;;18.30;;
928;SDS011;451;47.988;7.842;2023-02-28T21:33:17;26.57;;;17.40;;
928;SDS011;451;47.988;7.842;2023-02-28T21:42:20;26.17;;;18.23;;
928;SDS011;451;47.988;7.842;2023-02-28T21:51:25;23.73;;;17.43;;
928;SDS011;451;47.988;7.842;2023-02-28T22:00:31;23.73;;;16.57;;
928;SDS011;451;47.988;7.842;2023-02-28T22:09:36;27.37;;;18.90;;
928;SDS011;451;47.988;7.842;2023-02-28T22:18:40;27.80;;;18.73;;
928;SDS011;451;47.988;7.842;2023-02-28T22:27:45;27.47;;;17.23;;
928;SDS011;451;47.988;7.842;2023-02-28T22:36:48;25.07;;;17.93;;
928;SDS011;451;47.988;7.842;2023-02-28T22:45:53;26.17;;;17.10;;
928;SDS011;451;47.988;7.842;2023-02-28T22:54:56;23.47;;;16.53;;
928;SDS011;451;47.988;7.842;2023-02-28T23:04:01;21.90;;;16.70;;
928;SDS011;451;47.988;7.842;2023-02-28T23:13:04;22.80;;;17.90;;
928;SDS011;451;47.988;7.842;2023-02-28T23:22:08;28.30;;;18.00;;
928;SDS011;451;47.988;7.842;2023-02-28T23:31:11;25.67;;;17.17;;
928;SDS011;451;47.988;7.842;2023-02-28T23:40:16;24.53;;;18.10;;
928;SDS011;451;47.988;7.842;2023-02-28T23:49:20;22.33;;;16.43;;
928;SDS011;451;47.988;7.842;2023-02-28T23:58:25;26.83;;;17.20;;
